createdAt,value
2023-10-03T00:01:12.301Z,2.08
2023-10-03T00:03:40.415Z,1.88
2023-10-03T00:06:08.744Z,2.30
2023-10-03T00:08:36.213Z,1.73
2023-10-03T00:11:04.252Z,1.92
2023-10-03T00:13:32.470Z,1.60
2023-10-03T00:16:00.102Z,2.15
2023-10-03T00:18:29.194Z,1.57
2023-10-03T00:20:56.738Z,1.80
2023-10-03T00:23:25.702Z,1.80
2023-10-03T00:25:55.600Z,1.92
2023-10-03T00:28:23.176Z,1.75
2023-10-03T00:30:52.662Z,1.77
2023-10-03T00:33:24.578Z,1.55
2023-10-03T00:35:52.705Z,1.52
2023-10-03T00:38:20.428Z,1.92
2023-10-03T00:40:52.550Z,1.60
2023-10-03T00:43:20.211Z,1.90
2023-10-03T00:45:50.105Z,1.50
2023-10-03T00:48:19.212Z,1.60
2023-10-03T00:50:47.708Z,1.50
2023-10-03T00:53:15.705Z,1.60
2023-10-03T00:55:49.106Z,1.70
2023-10-03T00:58:29.850Z,1.98
2023-10-03T01:01:00.899Z,1.40
2023-10-03T01:03:32.766Z,1.30
2023-10-03T01:06:06.315Z,1.27
2023-10-03T01:08:38.375Z,1.27
2023-10-03T01:11:06.417Z,1.77
2023-10-03T01:13:33.953Z,1.60
2023-10-03T01:16:01.466Z,1.50
2023-10-03T01:18:32.639Z,1.17
2023-10-03T01:21:03.976Z,1.65
2023-10-03T01:23:35.061Z,1.40
2023-10-03T01:26:02.617Z,1.25
2023-10-03T01:28:30.360Z,1.35
2023-10-03T01:30:58.605Z,1.23
2023-10-03T01:33:32.310Z,1.50
2023-10-03T01:36:03.928Z,1.05
2023-10-03T01:38:31.495Z,1.35
2023-10-03T01:40:59.579Z,1.60
2023-10-03T01:43:27.380Z,1.33
2023-10-03T01:45:56.229Z,1.33
2023-10-03T01:48:25.559Z,1.20
2023-10-03T01:50:53.155Z,1.35
2023-10-03T01:53:21.231Z,1.10
2023-10-03T01:55:50.626Z,1.48
2023-10-03T01:58:18.265Z,1.20
2023-10-03T02:00:46.408Z,1.00
2023-10-03T02:03:14.958Z,1.20
2023-10-03T02:05:43.855Z,1.23
2023-10-03T02:08:17.081Z,1.13
2023-10-03T02:10:45.712Z,0.98
2023-10-03T02:13:16.331Z,1.23
2023-10-03T02:15:45.338Z,1.15
2023-10-03T02:18:19.235Z,1.25
2023-10-03T02:20:54.078Z,1.00
2023-10-03T02:23:26.716Z,1.08
2023-10-03T02:25:59.625Z,1.20
2023-10-03T02:28:28.706Z,1.30
2023-10-03T02:30:58.686Z,1.33
2023-10-03T02:33:28.019Z,1.05
2023-10-03T02:35:58.638Z,1.80
2023-10-03T02:38:30.897Z,1.50
2023-10-03T02:40:59.183Z,1.35
2023-10-03T02:43:35.472Z,1.35
2023-10-03T02:46:09.792Z,1.48
2023-10-03T02:48:38.029Z,1.17
2023-10-03T02:51:08.643Z,1.25
2023-10-03T02:53:39.442Z,1.50
2023-10-03T02:56:08.624Z,1.40
2023-10-03T02:58:36.684Z,1.30
2023-10-03T03:01:05.382Z,1.50
2023-10-03T03:03:34.673Z,1.50
2023-10-03T03:06:04.920Z,1.60
2023-10-03T03:08:32.832Z,1.60
2023-10-03T03:11:04.821Z,1.48
2023-10-03T03:13:33.584Z,1.20
2023-10-03T03:16:02.466Z,1.20
2023-10-03T03:18:38.302Z,1.45
2023-10-03T03:21:06.307Z,1.30
2023-10-03T03:23:37.832Z,1.10
2023-10-03T03:26:24.702Z,1.33
2023-10-03T03:28:52.913Z,1.50
2023-10-03T03:31:24.103Z,1.50
2023-10-03T03:33:53.641Z,1.23
2023-10-03T03:36:23.457Z,1.42
2023-10-03T03:38:53.634Z,1.70
2023-10-03T03:41:21.308Z,1.58
2023-10-03T03:43:50.275Z,1.63
2023-10-03T03:46:21.263Z,1.50
2023-10-03T03:48:48.849Z,1.10
2023-10-03T03:51:18.174Z,1.50
2023-10-03T03:53:46.235Z,1.45
2023-10-03T03:56:17.541Z,1.70
2023-10-03T03:58:49.896Z,1.67
2023-10-03T04:01:21.278Z,1.73
2023-10-03T04:03:53.082Z,1.40
2023-10-03T04:06:21.000Z,1.70
2023-10-03T04:09:06.176Z,2.28
2023-10-03T04:11:34.354Z,2.60
2023-10-03T04:14:05.529Z,2.65
2023-10-03T04:16:39.746Z,2.88
2023-10-03T04:19:08.041Z,2.92
2023-10-03T04:21:36.495Z,3.28
2023-10-03T04:24:06.106Z,3.13
2023-10-03T04:26:35.019Z,2.83
2023-10-03T04:29:02.722Z,3.40
2023-10-03T04:31:30.537Z,3.70
2023-10-03T04:33:58.059Z,4.03
2023-10-03T04:36:27.505Z,4.28
2023-10-03T04:38:55.307Z,4.00
2023-10-03T04:41:23.053Z,3.95
2023-10-03T04:43:51.570Z,3.97
2023-10-03T04:46:19.637Z,3.40
2023-10-03T04:48:47.841Z,3.20
2023-10-03T04:51:16.195Z,2.92
2023-10-03T04:53:43.788Z,3.33
2023-10-03T04:56:11.389Z,2.78
2023-10-03T04:58:38.871Z,2.95
2023-10-03T05:01:06.709Z,2.22
2023-10-03T05:03:34.499Z,2.55
2023-10-03T05:06:02.780Z,2.55
2023-10-03T05:08:30.404Z,2.10
2023-10-03T05:10:58.573Z,2.05
2023-10-03T05:13:29.690Z,2.28
2023-10-03T05:15:57.159Z,2.05
2023-10-03T05:18:24.942Z,2.40
2023-10-03T05:20:57.324Z,2.40
2023-10-03T05:23:25.125Z,2.25
2023-10-03T05:25:52.810Z,2.22
2023-10-03T05:28:20.606Z,2.85
2023-10-03T05:30:48.083Z,3.10
2023-10-03T05:33:15.805Z,3.07
2023-10-03T05:35:43.470Z,3.70
2023-10-03T05:38:11.151Z,3.90
2023-10-03T05:40:39.170Z,3.27
2023-10-03T05:43:08.514Z,3.95
2023-10-03T05:45:37.336Z,4.50
2023-10-03T05:48:06.538Z,3.40
2023-10-03T05:50:36.627Z,3.72
2023-10-03T05:53:07.728Z,3.35
2023-10-03T05:55:36.000Z,3.30
2023-10-03T05:58:08.145Z,3.10
2023-10-03T06:00:36.611Z,3.30
2023-10-03T06:03:04.533Z,3.42
2023-10-03T06:05:32.241Z,3.53
2023-10-03T06:08:00.617Z,2.92
2023-10-03T06:10:30.821Z,3.40
2023-10-03T06:12:58.352Z,3.30
2023-10-03T06:15:25.766Z,2.75
2023-10-03T06:17:53.899Z,2.65
2023-10-03T06:20:21.563Z,2.40
2023-10-03T06:22:49.179Z,2.10
2023-10-03T06:25:16.657Z,2.10
2023-10-03T06:27:45.155Z,1.85
2023-10-03T06:32:40.030Z,1.85
2023-10-03T06:35:07.843Z,1.60
2023-10-03T06:37:35.685Z,1.80
2023-10-03T06:40:10.062Z,1.83
2023-10-03T06:42:37.731Z,2.25
2023-10-03T06:45:05.661Z,2.00
2023-10-03T06:47:35.439Z,1.63
2023-10-03T06:50:06.759Z,1.83
2023-10-03T06:52:35.368Z,1.60
2023-10-03T06:57:37.939Z,1.38
2023-10-03T07:00:05.698Z,1.30
2023-10-03T07:02:33.312Z,1.15
2023-10-03T07:05:00.936Z,1.40
2023-10-03T07:07:28.619Z,1.10
2023-10-03T07:09:56.122Z,1.30
2023-10-03T07:12:23.553Z,1.10
2023-10-03T07:14:51.349Z,1.00
2023-10-03T07:17:19.187Z,1.80
2023-10-03T07:19:47.494Z,1.30
2023-10-03T07:22:15.296Z,0.98
2023-10-03T07:24:44.306Z,1.00
2023-10-03T07:27:14.935Z,1.10
2023-10-03T07:29:45.893Z,0.90
2023-10-03T07:32:15.127Z,1.02
2023-10-03T07:34:47.670Z,1.00
2023-10-03T07:37:19.239Z,1.30
2023-10-03T07:39:46.788Z,1.23
2023-10-03T07:42:15.960Z,1.27
2023-10-03T07:44:44.625Z,1.45
2023-10-03T07:47:15.141Z,1.30
2023-10-03T07:49:43.727Z,1.15
2023-10-03T07:52:12.573Z,1.20
2023-10-03T07:54:39.995Z,1.20
2023-10-03T07:57:07.456Z,1.00
2023-10-03T07:59:36.156Z,1.38
2023-10-03T08:02:12.123Z,1.33
2023-10-03T08:04:42.049Z,1.33
2023-10-03T08:07:09.675Z,1.45
2023-10-03T08:09:37.232Z,1.52
2023-10-03T08:12:13.638Z,1.40
2023-10-03T08:14:43.132Z,1.30
2023-10-03T08:17:13.225Z,1.35
2023-10-03T08:19:41.956Z,1.40
2023-10-03T08:22:14.139Z,1.17
2023-10-03T08:24:45.851Z,1.42
2023-10-03T08:27:20.373Z,1.88
2023-10-03T08:29:59.314Z,1.40
2023-10-03T08:32:27.634Z,1.17
2023-10-03T08:34:55.462Z,1.30
2023-10-03T08:37:23.530Z,1.20
2023-10-03T08:39:52.482Z,1.58
2023-10-03T08:42:45.243Z,1.25
2023-10-03T08:45:23.593Z,1.23
2023-10-03T08:47:53.102Z,0.90
2023-10-03T08:50:34.929Z,0.70
2023-10-03T08:53:17.103Z,0.80
2023-10-03T08:55:48.439Z,0.82
2023-10-03T08:58:20.261Z,0.77
2023-10-03T09:00:48.085Z,1.10
2023-10-03T09:03:16.735Z,0.90
2023-10-03T09:05:44.555Z,0.75
2023-10-03T09:08:12.926Z,0.95
2023-10-03T09:11:01.431Z,1.10
2023-10-03T09:13:30.102Z,1.00
2023-10-03T09:16:02.229Z,1.10
2023-10-03T09:18:42.624Z,0.80
2023-10-03T09:21:17.180Z,1.27
2023-10-03T09:24:16.106Z,1.05
2023-10-03T09:27:08.355Z,1.15
2023-10-03T09:29:38.071Z,1.45
2023-10-03T09:32:16.937Z,1.20
2023-10-03T09:34:48.257Z,1.17
2023-10-03T09:37:28.949Z,1.20
2023-10-03T09:40:22.010Z,1.70
2023-10-03T09:42:50.148Z,1.15
2023-10-03T09:45:29.162Z,1.30
2023-10-03T09:48:00.324Z,1.70
2023-10-03T09:50:34.044Z,1.40
2023-10-03T09:53:03.091Z,1.40
2023-10-03T09:55:42.530Z,1.70
2023-10-03T09:58:10.802Z,1.20
2023-10-03T10:00:42.907Z,1.30
2023-10-03T10:03:12.646Z,1.17
2023-10-03T10:05:53.065Z,0.98
2023-10-03T10:08:30.167Z,0.90
2023-10-03T10:11:09.285Z,1.20
2023-10-03T10:13:39.508Z,1.65
2023-10-03T10:16:22.433Z,1.20
2023-10-03T10:18:57.388Z,1.30
2023-10-03T10:21:31.839Z,1.40
2023-10-03T10:24:18.156Z,0.98
2023-10-03T10:27:05.641Z,0.85
2023-10-03T10:29:37.048Z,0.98
2023-10-03T10:32:19.135Z,0.95
2023-10-03T10:34:51.858Z,1.08
2023-10-03T10:37:20.023Z,0.93
2023-10-03T10:40:11.520Z,1.00
2023-10-03T10:43:03.098Z,0.90
2023-10-03T10:45:46.929Z,1.20
2023-10-03T10:48:23.450Z,0.93
2023-10-03T10:51:08.759Z,1.10
2023-10-03T10:53:48.784Z,0.90
2023-10-03T10:56:16.896Z,1.15
2023-10-03T10:58:51.923Z,0.90
2023-10-03T11:01:23.371Z,0.80
2023-10-03T11:03:51.330Z,1.00
2023-10-03T11:06:19.963Z,1.10
2023-10-03T11:11:15.041Z,1.20
2023-10-03T11:13:52.737Z,1.20
2023-10-03T11:16:27.148Z,1.20
2023-10-03T11:18:56.181Z,1.40
2023-10-03T11:21:25.007Z,1.20
2023-10-03T11:24:11.268Z,1.45
2023-10-03T11:26:45.900Z,1.35
2023-10-03T11:29:16.174Z,1.10
2023-10-03T11:31:44.383Z,0.98
2023-10-03T11:34:12.188Z,1.00
2023-10-03T11:36:43.147Z,1.10
2023-10-03T11:39:12.394Z,1.10
2023-10-03T11:41:40.131Z,0.82
2023-10-03T11:44:20.449Z,1.13
2023-10-03T11:46:48.351Z,1.23
2023-10-03T11:49:16.938Z,1.30
2023-10-03T11:51:45.657Z,1.00
2023-10-03T11:54:17.181Z,0.90
2023-10-03T11:56:48.064Z,1.20
2023-10-03T11:59:16.618Z,1.00
2023-10-03T12:01:57.907Z,1.10
2023-10-03T12:04:25.681Z,1.08
2023-10-03T12:06:53.379Z,1.88
2023-10-03T12:09:21.659Z,0.90
2023-10-03T12:11:50.878Z,1.00
2023-10-03T12:14:18.392Z,1.20
2023-10-03T12:16:55.838Z,1.33
2023-10-03T12:19:23.344Z,1.00
2023-10-03T12:21:50.877Z,1.27
2023-10-03T12:24:18.404Z,1.60
2023-10-03T12:26:46.320Z,0.93
2023-10-03T12:29:14.313Z,1.25
2023-10-03T12:31:42.040Z,1.00
2023-10-03T12:34:09.721Z,0.80
2023-10-03T12:36:37.217Z,1.00
2023-10-03T12:39:12.560Z,0.77
2023-10-03T12:41:43.465Z,0.70
2023-10-03T12:44:10.967Z,0.77
2023-10-03T12:46:38.447Z,0.90
2023-10-03T12:49:08.372Z,0.93
2023-10-03T12:51:44.346Z,0.93
2023-10-03T12:54:13.663Z,1.13
2023-10-03T12:56:41.290Z,1.25
2023-10-03T12:59:08.682Z,0.97
2023-10-03T13:01:36.299Z,0.80
2023-10-03T13:04:04.667Z,1.05
2023-10-03T13:06:32.211Z,1.00
2023-10-03T13:09:01.530Z,0.93
2023-10-03T13:11:29.233Z,1.02
2023-10-03T13:13:57.906Z,0.80
2023-10-03T13:16:27.456Z,0.70
2023-10-03T13:18:54.993Z,0.75
2023-10-03T13:21:26.333Z,1.00
2023-10-03T13:23:54.771Z,0.90
2023-10-03T13:26:23.118Z,1.10
2023-10-03T13:28:53.276Z,1.10
2023-10-03T13:31:23.012Z,0.90
2023-10-03T13:33:51.733Z,1.13
2023-10-03T13:36:20.123Z,0.80
2023-10-03T13:41:15.341Z,0.77
2023-10-03T13:43:42.934Z,0.90
2023-10-03T13:46:10.535Z,0.60
2023-10-03T13:48:39.720Z,0.80
2023-10-03T13:51:07.377Z,0.82
2023-10-03T13:53:34.993Z,0.70
2023-10-03T13:56:02.629Z,0.85
2023-10-03T13:58:30.866Z,1.30
2023-10-03T14:01:01.886Z,0.90
2023-10-03T14:03:32.422Z,0.82
2023-10-03T14:06:01.345Z,0.68
2023-10-03T14:08:28.971Z,1.08
2023-10-03T14:10:57.932Z,0.77
2023-10-03T14:13:26.612Z,0.73
2023-10-03T14:15:54.478Z,0.87
2023-10-03T14:18:22.105Z,0.80
2023-10-03T14:20:49.750Z,1.13
2023-10-03T14:23:17.372Z,1.00
2023-10-03T14:25:44.920Z,0.80
2023-10-03T14:28:12.748Z,0.63
2023-10-03T14:30:41.456Z,1.08
2023-10-03T14:33:12.507Z,0.80
2023-10-03T14:35:43.992Z,0.65
2023-10-03T14:38:11.908Z,0.93
2023-10-03T14:40:40.216Z,1.25
2023-10-03T14:43:07.703Z,0.85
2023-10-03T14:45:35.224Z,0.85
2023-10-03T14:48:02.762Z,0.77
2023-10-03T14:50:30.506Z,1.23
2023-10-03T14:52:57.990Z,0.70
2023-10-03T14:55:29.047Z,0.70
2023-10-03T14:57:57.197Z,1.10
2023-10-03T15:00:24.691Z,1.05
2023-10-03T15:02:53.148Z,0.73
2023-10-03T15:05:20.942Z,0.80
2023-10-03T15:07:49.196Z,0.95
2023-10-03T15:10:17.477Z,1.20
2023-10-03T15:15:13.294Z,0.85
2023-10-03T15:20:12.865Z,1.27
2023-10-03T15:22:41.062Z,1.00
2023-10-03T15:25:08.984Z,0.85
2023-10-03T15:27:38.469Z,0.90
2023-10-03T15:30:10.063Z,0.90
2023-10-03T15:32:38.187Z,1.10
2023-10-03T15:35:06.597Z,0.90
2023-10-03T15:40:01.530Z,0.88
2023-10-03T15:42:31.147Z,1.00
2023-10-03T15:47:37.743Z,0.80
2023-10-03T15:50:05.743Z,0.95
2023-10-03T15:52:33.241Z,0.77
2023-10-03T15:55:01.139Z,1.25
2023-10-03T15:57:28.958Z,0.88
2023-10-03T15:59:56.732Z,0.70
2023-10-03T16:02:24.444Z,0.80
2023-10-03T16:04:52.059Z,0.90
2023-10-03T16:07:20.706Z,0.97
2023-10-03T16:09:50.769Z,0.85
2023-10-03T16:12:20.900Z,0.80
2023-10-03T16:14:49.464Z,1.00
2023-10-03T16:17:17.947Z,1.10
2023-10-03T16:19:47.529Z,0.80
2023-10-03T16:22:15.107Z,0.80
2023-10-03T16:24:42.591Z,0.98
2023-10-03T16:27:10.232Z,1.08
2023-10-03T16:29:43.502Z,1.20
2023-10-03T16:32:12.729Z,0.93
2023-10-03T16:34:41.481Z,1.00
2023-10-03T16:37:09.159Z,0.88
2023-10-03T16:39:40.220Z,0.70
2023-10-03T16:42:08.191Z,1.02
2023-10-03T16:44:36.542Z,0.88
2023-10-03T16:47:04.271Z,0.80
2023-10-03T16:49:31.765Z,0.77
2023-10-03T16:51:59.210Z,1.25
2023-10-03T16:54:27.242Z,0.90
2023-10-03T16:56:54.883Z,0.80
2023-10-03T16:59:22.452Z,1.00
2023-10-03T17:01:50.019Z,1.08
2023-10-03T17:04:18.029Z,0.77
2023-10-03T17:06:48.760Z,1.13
2023-10-03T17:09:16.629Z,0.80
2023-10-03T17:11:46.852Z,0.93
2023-10-03T17:14:14.367Z,0.80
2023-10-03T17:16:41.986Z,0.80
2023-10-03T17:19:10.008Z,0.90
2023-10-03T17:21:37.571Z,1.05
2023-10-03T17:24:06.076Z,0.93
2023-10-03T17:26:35.179Z,1.25
2023-10-03T17:29:02.962Z,1.38
2023-10-03T17:31:31.141Z,1.48
2023-10-03T17:33:58.847Z,1.17
2023-10-03T17:36:26.816Z,1.35
2023-10-03T17:38:54.438Z,1.10
2023-10-03T17:41:22.152Z,1.53
2023-10-03T17:43:50.300Z,1.23
2023-10-03T17:46:18.906Z,1.13
2023-10-03T17:48:46.476Z,1.10
2023-10-03T17:51:14.388Z,0.93
2023-10-03T17:53:41.942Z,1.20
2023-10-03T17:56:13.170Z,1.67
2023-10-03T17:58:40.621Z,1.35
2023-10-03T18:01:08.330Z,1.80
2023-10-03T18:03:38.645Z,1.25
2023-10-03T18:06:06.449Z,1.65
2023-10-03T18:08:33.983Z,1.50
2023-10-03T18:11:05.089Z,1.97
2023-10-03T18:13:41.452Z,2.30
2023-10-03T18:16:12.573Z,2.50
2023-10-03T18:18:52.188Z,1.77
2023-10-03T18:21:34.748Z,1.50
2023-10-03T18:24:14.048Z,1.30
2023-10-03T18:26:46.948Z,1.30
2023-10-03T18:29:17.165Z,1.33
2023-10-03T18:31:44.837Z,1.15
2023-10-03T18:34:17.351Z,1.10
2023-10-03T18:36:49.621Z,1.05
2023-10-03T18:39:17.438Z,1.08
2023-10-03T18:41:47.414Z,1.48
2023-10-03T18:44:16.832Z,1.20
2023-10-03T18:46:51.865Z,1.45
2023-10-03T18:49:19.734Z,1.40
2023-10-03T18:51:47.642Z,1.45
2023-10-03T18:54:15.490Z,1.67
2023-10-03T18:56:43.317Z,1.58
2023-10-03T18:59:12.232Z,1.42
2023-10-03T19:01:48.964Z,1.20
2023-10-03T19:04:17.212Z,1.20
2023-10-03T19:06:44.991Z,1.27
2023-10-03T19:09:14.711Z,1.75
2023-10-03T19:11:46.580Z,1.80
2023-10-03T19:14:14.372Z,1.38
2023-10-03T19:16:42.086Z,1.63
2023-10-03T19:19:10.132Z,1.42
2023-10-03T19:21:37.983Z,1.40
2023-10-03T19:24:05.994Z,1.70
2023-10-03T19:26:33.726Z,1.40
2023-10-03T19:29:01.270Z,1.27
2023-10-03T19:31:28.894Z,1.70
2023-10-03T19:33:56.512Z,1.90
2023-10-03T19:36:24.024Z,1.30
2023-10-03T19:38:54.376Z,1.60
2023-10-03T19:41:24.067Z,2.08
2023-10-03T19:43:52.108Z,1.10
2023-10-03T19:46:28.830Z,1.40
2023-10-03T19:48:57.183Z,1.38
2023-10-03T19:51:24.778Z,1.40
2023-10-03T19:53:54.819Z,1.60
2023-10-03T19:56:26.491Z,1.27
2023-10-03T19:58:55.973Z,1.25
2023-10-03T20:01:24.548Z,1.10
2023-10-03T20:03:55.463Z,2.40
2023-10-03T20:06:24.645Z,7.70
2023-10-03T20:08:54.883Z,7.25
2023-10-03T20:11:22.774Z,6.38
2023-10-03T20:13:50.257Z,4.18
2023-10-03T20:16:18.036Z,3.97
2023-10-03T20:18:53.217Z,3.17
2023-10-03T20:21:21.266Z,2.30
2023-10-03T20:23:50.512Z,2.10
2023-10-03T20:26:18.137Z,2.20
2023-10-03T20:28:47.576Z,2.40
2023-10-03T20:31:15.347Z,2.00
2023-10-03T20:33:43.110Z,2.75
2023-10-03T20:36:14.652Z,2.72
2023-10-03T20:38:42.649Z,2.50
2023-10-03T20:41:11.074Z,2.33
2023-10-03T20:46:20.030Z,2.13
2023-10-03T20:48:48.294Z,1.63
2023-10-03T20:51:23.600Z,1.95
2023-10-03T20:53:51.459Z,1.67
2023-10-03T20:56:18.959Z,2.30
2023-10-03T20:58:47.195Z,2.58
2023-10-03T21:01:15.020Z,2.17
2023-10-03T21:03:45.427Z,1.60
2023-10-03T21:06:13.179Z,1.77
2023-10-03T21:08:40.859Z,1.60
2023-10-03T21:11:08.858Z,1.70
2023-10-03T21:13:36.952Z,1.98
2023-10-03T21:16:05.942Z,1.70
2023-10-03T21:18:35.075Z,1.70
2023-10-03T21:21:05.492Z,2.70
2023-10-03T21:23:33.137Z,3.90
2023-10-03T21:26:10.985Z,3.93
2023-10-03T21:28:38.528Z,4.75
2023-10-03T21:31:06.094Z,3.70
2023-10-03T21:33:33.706Z,3.78
2023-10-03T21:36:02.528Z,3.13
2023-10-03T21:38:30.342Z,2.80
2023-10-03T21:40:58.575Z,2.55
2023-10-03T21:43:26.850Z,2.10
2023-10-03T21:45:54.389Z,2.08
2023-10-03T21:48:22.784Z,2.00
2023-10-03T21:50:50.338Z,2.05
2023-10-03T21:53:17.832Z,1.88
2023-10-03T21:55:47.075Z,2.00
2023-10-03T21:58:14.664Z,2.28
2023-10-03T22:00:47.321Z,1.97
2023-10-03T22:03:18.216Z,2.20
2023-10-03T22:05:45.902Z,1.98
2023-10-03T22:08:13.454Z,2.33
2023-10-03T22:10:45.903Z,2.55
2023-10-03T22:13:14.768Z,2.50
2023-10-03T22:15:43.451Z,2.30
2023-10-03T22:18:11.291Z,2.47
2023-10-03T22:20:39.183Z,2.22
2023-10-03T22:23:06.689Z,2.22
2023-10-03T22:25:34.317Z,2.17
2023-10-03T22:28:02.489Z,1.93
2023-10-03T22:30:31.182Z,2.10
2023-10-03T22:33:00.567Z,2.30
2023-10-03T22:35:29.644Z,2.17
2023-10-03T22:38:07.978Z,1.77
2023-10-03T22:40:37.979Z,2.33
2023-10-03T22:43:06.454Z,2.15
2023-10-03T22:45:34.501Z,2.17
2023-10-03T22:48:03.585Z,2.15
2023-10-03T22:50:31.733Z,2.38
2023-10-03T22:52:59.910Z,2.05
2023-10-03T22:55:29.078Z,2.03
2023-10-03T22:57:56.868Z,2.20
2023-10-03T23:00:24.479Z,1.83
2023-10-03T23:02:52.258Z,2.28
2023-10-03T23:05:20.275Z,2.05
2023-10-03T23:07:48.976Z,2.47
2023-10-03T23:10:17.596Z,2.67
2023-10-03T23:15:16.023Z,2.17
2023-10-03T23:17:43.732Z,2.50
2023-10-03T23:20:14.793Z,2.25
2023-10-03T23:22:43.280Z,2.55
2023-10-03T23:25:10.874Z,2.22
2023-10-03T23:27:39.981Z,2.27
2023-10-03T23:30:07.963Z,2.33
2023-10-03T23:32:35.911Z,1.85
2023-10-03T23:35:03.753Z,2.90
2023-10-03T23:37:31.648Z,2.92
2023-10-03T23:40:06.179Z,2.22
2023-10-03T23:42:35.941Z,3.33
2023-10-03T23:45:04.164Z,2.35
2023-10-03T23:47:35.769Z,2.30
2023-10-03T23:50:07.586Z,3.05
2023-10-03T23:52:35.410Z,2.28
2023-10-03T23:55:14.201Z,2.75
2023-10-03T23:57:43.482Z,2.60
